sensor_id;sensor_type;location;lat;lon;timestamp;P1;durP1;ratioP1;P2;durP2;ratioP2
6840;SDS011;3458;53.678;14.080;2023-11-19T00:01:32;17.67;;;9.20;;
6840;SDS011;3458;53.678;14.080;2023-11-19T00:03:57;14.00;;;8.40;;
6840;SDS011;3458;53.678;14.080;2023-11-19T00:06:23;16.37;;;8.70;;
6840;SDS011;3458;53.678;14.080;2023-11-19T00:08:50;14.37;;;7.97;;
6840;SDS011;3458;53.678;14.080;2023-11-19T00:11:15;14.40;;;8.43;;
6840;SDS011;3458;53.678;14.080;2023-11-19T00:13:41;12.80;;;7.23;;
6840;SDS011;3458;53.678;14.080;2023-11-19T00:16:07;17.17;;;9.07;;
6840;SDS011;3458;53.678;14.080;2023-11-19T00:18:34;17.13;;;7.57;;
6840;SDS011;3458;53.678;14.080;2023-11-19T00:21:01;12.90;;;7.20;;
6840;SDS011;3458;53.678;14.080;2023-11-19T00:23:27;18.17;;;8.10;;
6840;SDS011;3458;53.678;14.080;2023-11-19T00:25:52;14.80;;;8.50;;
6840;SDS011;3458;53.678;14.080;2023-11-19T00:28:18;14.17;;;9.10;;
6840;SDS011;3458;53.678;14.080;2023-11-19T00:30:43;15.93;;;7.53;;
6840;SDS011;3458;53.678;14.080;2023-11-19T00:33:09;12.67;;;7.50;;
6840;SDS011;3458;53.678;14.080;2023-11-19T00:35:34;12.13;;;7.87;;
6840;SDS011;3458;53.678;14.080;2023-11-19T00:38:00;14.10;;;7.90;;
6840;SDS011;3458;53.678;14.080;2023-11-19T00:40:27;12.87;;;7.57;;
6840;SDS011;3458;53.678;14.080;2023-11-19T00:42:53;15.20;;;7.80;;
6840;SDS011;3458;53.678;14.080;2023-11-19T00:45:19;11.07;;;7.00;;
6840;SDS011;3458;53.678;14.080;2023-11-19T00:47:44;12.70;;;6.73;;
6840;SDS011;3458;53.678;14.080;2023-11-19T00:50:10;11.70;;;8.00;;
6840;SDS011;3458;53.678;14.080;2023-11-19T00:52:36;11.70;;;7.60;;
6840;SDS011;3458;53.678;14.080;2023-11-19T00:55:02;10.23;;;6.67;;
6840;SDS011;3458;53.678;14.080;2023-11-19T00:57:29;18.73;;;6.83;;
6840;SDS011;3458;53.678;14.080;2023-11-19T00:59:56;13.30;;;7.20;;
6840;SDS011;3458;53.678;14.080;2023-11-19T01:02:22;13.60;;;8.43;;
6840;SDS011;3458;53.678;14.080;2023-11-19T01:04:47;9.53;;;6.57;;
6840;SDS011;3458;53.678;14.080;2023-11-19T01:07:13;13.90;;;7.67;;
6840;SDS011;3458;53.678;14.080;2023-11-19T01:09:38;13.60;;;8.10;;
6840;SDS011;3458;53.678;14.080;2023-11-19T01:12:06;12.00;;;7.03;;
6840;SDS011;3458;53.678;14.080;2023-11-19T01:14:32;13.83;;;7.70;;
6840;SDS011;3458;53.678;14.080;2023-11-19T01:16:57;14.33;;;7.77;;
6840;SDS011;3458;53.678;14.080;2023-11-19T01:19:23;10.40;;;6.03;;
6840;SDS011;3458;53.678;14.080;2023-11-19T01:21:49;8.80;;;6.40;;
6840;SDS011;3458;53.678;14.080;2023-11-19T01:24:15;10.50;;;6.63;;
6840;SDS011;3458;53.678;14.080;2023-11-19T01:26:41;10.43;;;6.30;;
6840;SDS011;3458;53.678;14.080;2023-11-19T01:29:10;12.10;;;7.10;;
6840;SDS011;3458;53.678;14.080;2023-11-19T01:31:38;14.37;;;6.40;;
6840;SDS011;3458;53.678;14.080;2023-11-19T01:34:04;15.97;;;7.60;;
6840;SDS011;3458;53.678;14.080;2023-11-19T01:36:30;14.97;;;7.70;;
6840;SDS011;3458;53.678;14.080;2023-11-19T01:38:55;14.63;;;8.00;;
6840;SDS011;3458;53.678;14.080;2023-11-19T01:41:21;10.53;;;5.90;;
6840;SDS011;3458;53.678;14.080;2023-11-19T01:43:46;15.73;;;6.97;;
6840;SDS011;3458;53.678;14.080;2023-11-19T01:46:12;13.00;;;8.10;;
6840;SDS011;3458;53.678;14.080;2023-11-19T01:48:39;14.00;;;7.17;;
6840;SDS011;3458;53.678;14.080;2023-11-19T01:51:08;18.23;;;7.90;;
6840;SDS011;3458;53.678;14.080;2023-11-19T01:53:34;14.30;;;8.00;;
6840;SDS011;3458;53.678;14.080;2023-11-19T01:56:03;20.87;;;8.60;;
6840;SDS011;3458;53.678;14.080;2023-11-19T01:58:31;13.83;;;7.47;;
6840;SDS011;3458;53.678;14.080;2023-11-19T02:00:56;13.43;;;7.57;;
6840;SDS011;3458;53.678;14.080;2023-11-19T02:03:22;19.00;;;7.20;;
6840;SDS011;3458;53.678;14.080;2023-11-19T02:05:50;17.17;;;8.00;;
6840;SDS011;3458;53.678;14.080;2023-11-19T02:08:16;15.67;;;8.30;;
6840;SDS011;3458;53.678;14.080;2023-11-19T02:10:41;15.37;;;8.07;;
6840;SDS011;3458;53.678;14.080;2023-11-19T02:13:08;13.00;;;7.30;;
6840;SDS011;3458;53.678;14.080;2023-11-19T02:15:35;13.33;;;7.40;;
6840;SDS011;3458;53.678;14.080;2023-11-19T02:18:16;17.70;;;7.90;;
6840;SDS011;3458;53.678;14.080;2023-11-19T02:20:55;15.40;;;7.60;;
6840;SDS011;3458;53.678;14.080;2023-11-19T02:23:21;14.10;;;7.83;;
6840;SDS011;3458;53.678;14.080;2023-11-19T02:25:51;15.87;;;8.07;;
6840;SDS011;3458;53.678;14.080;2023-11-19T02:28:24;17.63;;;7.90;;
6840;SDS011;3458;53.678;14.080;2023-11-19T02:30:50;16.43;;;8.50;;
6840;SDS011;3458;53.678;14.080;2023-11-19T02:33:15;14.30;;;8.10;;
6840;SDS011;3458;53.678;14.080;2023-11-19T02:35:41;16.80;;;8.27;;
6840;SDS011;3458;53.678;14.080;2023-11-19T02:38:06;11.83;;;8.13;;
6840;SDS011;3458;53.678;14.080;2023-11-19T02:40:32;15.90;;;8.27;;
6840;SDS011;3458;53.678;14.080;2023-11-19T02:42:58;14.53;;;9.30;;
6840;SDS011;3458;53.678;14.080;2023-11-19T02:45:24;14.70;;;8.77;;
6840;SDS011;3458;53.678;14.080;2023-11-19T02:47:50;17.93;;;9.90;;
6840;SDS011;3458;53.678;14.080;2023-11-19T02:50:17;17.30;;;9.40;;
6840;SDS011;3458;53.678;14.080;2023-11-19T02:52:49;17.50;;;10.00;;
6840;SDS011;3458;53.678;14.080;2023-11-19T02:55:16;13.27;;;7.53;;
6840;SDS011;3458;53.678;14.080;2023-11-19T02:57:43;21.43;;;9.33;;
6840;SDS011;3458;53.678;14.080;2023-11-19T03:00:12;18.10;;;8.50;;
6840;SDS011;3458;53.678;14.080;2023-11-19T03:02:48;17.13;;;9.70;;
6840;SDS011;3458;53.678;14.080;2023-11-19T03:05:23;18.13;;;9.83;;
6840;SDS011;3458;53.678;14.080;2023-11-19T03:07:49;18.47;;;8.87;;
6840;SDS011;3458;53.678;14.080;2023-11-19T03:10:14;27.60;;;14.23;;
6840;SDS011;3458;53.678;14.080;2023-11-19T03:12:40;45.13;;;22.33;;
6840;SDS011;3458;53.678;14.080;2023-11-19T03:15:06;24.73;;;14.33;;
6840;SDS011;3458;53.678;14.080;2023-11-19T03:17:34;20.43;;;11.40;;
6840;SDS011;3458;53.678;14.080;2023-11-19T03:20:00;22.40;;;11.67;;
6840;SDS011;3458;53.678;14.080;2023-11-19T03:22:26;19.00;;;10.70;;
6840;SDS011;3458;53.678;14.080;2023-11-19T03:24:51;22.03;;;11.70;;
6840;SDS011;3458;53.678;14.080;2023-11-19T03:27:17;22.53;;;9.43;;
6840;SDS011;3458;53.678;14.080;2023-11-19T03:29:42;18.50;;;10.90;;
6840;SDS011;3458;53.678;14.080;2023-11-19T03:32:08;18.47;;;11.17;;
6840;SDS011;3458;53.678;14.080;2023-11-19T03:34:33;23.30;;;11.27;;
6840;SDS011;3458;53.678;14.080;2023-11-19T03:36:59;19.50;;;10.90;;
6840;SDS011;3458;53.678;14.080;2023-11-19T03:39:24;20.37;;;9.87;;
6840;SDS011;3458;53.678;14.080;2023-11-19T03:41:52;19.67;;;11.03;;
6840;SDS011;3458;53.678;14.080;2023-11-19T03:44:17;17.40;;;10.40;;
6840;SDS011;3458;53.678;14.080;2023-11-19T03:46:44;18.83;;;10.27;;
6840;SDS011;3458;53.678;14.080;2023-11-19T03:49:09;19.40;;;9.67;;
6840;SDS011;3458;53.678;14.080;2023-11-19T03:51:35;17.77;;;9.70;;
6840;SDS011;3458;53.678;14.080;2023-11-19T03:54:00;13.27;;;8.60;;
6840;SDS011;3458;53.678;14.080;2023-11-19T03:56:26;18.90;;;10.90;;
6840;SDS011;3458;53.678;14.080;2023-11-19T03:58:52;20.27;;;10.90;;
6840;SDS011;3458;53.678;14.080;2023-11-19T04:01:17;20.70;;;11.03;;
6840;SDS011;3458;53.678;14.080;2023-11-19T04:03:43;21.17;;;10.97;;
6840;SDS011;3458;53.678;14.080;2023-11-19T04:06:09;22.53;;;9.90;;
6840;SDS011;3458;53.678;14.080;2023-11-19T04:08:34;23.63;;;9.63;;
6840;SDS011;3458;53.678;14.080;2023-11-19T04:11:00;21.20;;;10.80;;
6840;SDS011;3458;53.678;14.080;2023-11-19T04:13:27;21.87;;;11.47;;
6840;SDS011;3458;53.678;14.080;2023-11-19T04:15:53;19.20;;;10.03;;
6840;SDS011;3458;53.678;14.080;2023-11-19T04:18:18;18.03;;;9.53;;
6840;SDS011;3458;53.678;14.080;2023-11-19T04:20:44;28.03;;;11.60;;
6840;SDS011;3458;53.678;14.080;2023-11-19T04:23:09;18.03;;;10.57;;
6840;SDS011;3458;53.678;14.080;2023-11-19T04:25:36;24.27;;;10.00;;
6840;SDS011;3458;53.678;14.080;2023-11-19T04:28:01;15.90;;;9.90;;
6840;SDS011;3458;53.678;14.080;2023-11-19T04:30:27;18.67;;;10.30;;
6840;SDS011;3458;53.678;14.080;2023-11-19T04:32:53;18.37;;;10.77;;
6840;SDS011;3458;53.678;14.080;2023-11-19T04:35:19;17.33;;;9.20;;
6840;SDS011;3458;53.678;14.080;2023-11-19T04:37:44;16.30;;;9.20;;
6840;SDS011;3458;53.678;14.080;2023-11-19T04:40:10;18.90;;;11.43;;
6840;SDS011;3458;53.678;14.080;2023-11-19T04:42:37;19.00;;;10.30;;
6840;SDS011;3458;53.678;14.080;2023-11-19T04:45:05;18.57;;;9.63;;
6840;SDS011;3458;53.678;14.080;2023-11-19T04:47:31;20.30;;;10.10;;
6840;SDS011;3458;53.678;14.080;2023-11-19T04:50:00;23.70;;;9.90;;
6840;SDS011;3458;53.678;14.080;2023-11-19T04:52:25;18.80;;;11.17;;
6840;SDS011;3458;53.678;14.080;2023-11-19T04:54:51;18.60;;;10.80;;
6840;SDS011;3458;53.678;14.080;2023-11-19T04:57:16;18.93;;;9.63;;
6840;SDS011;3458;53.678;14.080;2023-11-19T04:59:42;22.33;;;10.47;;
6840;SDS011;3458;53.678;14.080;2023-11-19T05:02:08;21.70;;;12.50;;
6840;SDS011;3458;53.678;14.080;2023-11-19T05:04:33;23.73;;;11.93;;
6840;SDS011;3458;53.678;14.080;2023-11-19T05:06:59;20.03;;;11.27;;
6840;SDS011;3458;53.678;14.080;2023-11-19T05:09:24;18.63;;;11.13;;
6840;SDS011;3458;53.678;14.080;2023-11-19T05:11:50;21.50;;;10.53;;
6840;SDS011;3458;53.678;14.080;2023-11-19T05:14:15;22.83;;;12.37;;
6840;SDS011;3458;53.678;14.080;2023-11-19T05:16:41;23.33;;;11.80;;
6840;SDS011;3458;53.678;14.080;2023-11-19T05:19:07;23.43;;;12.20;;
6840;SDS011;3458;53.678;14.080;2023-11-19T05:21:33;22.27;;;12.30;;
6840;SDS011;3458;53.678;14.080;2023-11-19T05:24:00;23.33;;;11.87;;
6840;SDS011;3458;53.678;14.080;2023-11-19T05:26:29;22.67;;;11.50;;
6840;SDS011;3458;53.678;14.080;2023-11-19T05:28:54;19.73;;;11.10;;
6840;SDS011;3458;53.678;14.080;2023-11-19T05:31:20;20.17;;;11.33;;
6840;SDS011;3458;53.678;14.080;2023-11-19T05:33:45;20.60;;;12.07;;
6840;SDS011;3458;53.678;14.080;2023-11-19T05:36:11;20.37;;;12.33;;
6840;SDS011;3458;53.678;14.080;2023-11-19T05:38:37;24.33;;;12.60;;
6840;SDS011;3458;53.678;14.080;2023-11-19T05:41:03;20.97;;;11.20;;
6840;SDS011;3458;53.678;14.080;2023-11-19T05:43:30;22.93;;;12.80;;
6840;SDS011;3458;53.678;14.080;2023-11-19T05:45:55;21.10;;;12.33;;
6840;SDS011;3458;53.678;14.080;2023-11-19T05:48:21;27.20;;;12.77;;
6840;SDS011;3458;53.678;14.080;2023-11-19T05:50:46;23.27;;;13.03;;
6840;SDS011;3458;53.678;14.080;2023-11-19T05:53:14;20.83;;;11.70;;
6840;SDS011;3458;53.678;14.080;2023-11-19T05:55:40;21.60;;;11.43;;
6840;SDS011;3458;53.678;14.080;2023-11-19T05:58:13;38.57;;;13.53;;
6840;SDS011;3458;53.678;14.080;2023-11-19T06:00:39;19.83;;;11.37;;
6840;SDS011;3458;53.678;14.080;2023-11-19T06:03:05;19.70;;;11.57;;
6840;SDS011;3458;53.678;14.080;2023-11-19T06:05:34;20.40;;;11.33;;
6840;SDS011;3458;53.678;14.080;2023-11-19T06:07:59;21.30;;;11.93;;
6840;SDS011;3458;53.678;14.080;2023-11-19T06:10:25;27.37;;;13.03;;
6840;SDS011;3458;53.678;14.080;2023-11-19T06:12:55;21.20;;;11.40;;
6840;SDS011;3458;53.678;14.080;2023-11-19T06:15:27;24.73;;;11.87;;
6840;SDS011;3458;53.678;14.080;2023-11-19T06:17:53;18.90;;;11.37;;
6840;SDS011;3458;53.678;14.080;2023-11-19T06:20:19;20.93;;;11.60;;
6840;SDS011;3458;53.678;14.080;2023-11-19T06:22:45;24.90;;;12.77;;
6840;SDS011;3458;53.678;14.080;2023-11-19T06:25:11;20.57;;;10.70;;
6840;SDS011;3458;53.678;14.080;2023-11-19T06:27:37;24.20;;;12.50;;
6840;SDS011;3458;53.678;14.080;2023-11-19T06:30:02;22.40;;;11.97;;
6840;SDS011;3458;53.678;14.080;2023-11-19T06:32:28;22.77;;;11.93;;
6840;SDS011;3458;53.678;14.080;2023-11-19T06:34:54;17.23;;;10.10;;
6840;SDS011;3458;53.678;14.080;2023-11-19T06:37:20;22.20;;;10.97;;
6840;SDS011;3458;53.678;14.080;2023-11-19T06:39:45;19.70;;;11.50;;
6840;SDS011;3458;53.678;14.080;2023-11-19T06:42:10;23.70;;;11.83;;
6840;SDS011;3458;53.678;14.080;2023-11-19T06:44:36;23.13;;;11.70;;
6840;SDS011;3458;53.678;14.080;2023-11-19T06:47:01;19.33;;;11.60;;
6840;SDS011;3458;53.678;14.080;2023-11-19T06:49:27;23.47;;;10.70;;
6840;SDS011;3458;53.678;14.080;2023-11-19T06:51:53;21.33;;;11.37;;
6840;SDS011;3458;53.678;14.080;2023-11-19T06:54:18;17.33;;;10.03;;
6840;SDS011;3458;53.678;14.080;2023-11-19T06:56:44;19.97;;;11.20;;
6840;SDS011;3458;53.678;14.080;2023-11-19T06:59:09;21.43;;;11.57;;
6840;SDS011;3458;53.678;14.080;2023-11-19T07:01:35;20.87;;;11.37;;
6840;SDS011;3458;53.678;14.080;2023-11-19T07:04:01;19.33;;;10.50;;
6840;SDS011;3458;53.678;14.080;2023-11-19T07:06:33;17.00;;;10.00;;
6840;SDS011;3458;53.678;14.080;2023-11-19T07:08:58;17.00;;;9.83;;
6840;SDS011;3458;53.678;14.080;2023-11-19T07:11:24;19.57;;;11.00;;
6840;SDS011;3458;53.678;14.080;2023-11-19T07:13:49;17.87;;;10.50;;
6840;SDS011;3458;53.678;14.080;2023-11-19T07:16:15;19.53;;;10.00;;
6840;SDS011;3458;53.678;14.080;2023-11-19T07:18:40;19.20;;;10.80;;
6840;SDS011;3458;53.678;14.080;2023-11-19T07:21:08;23.00;;;9.27;;
6840;SDS011;3458;53.678;14.080;2023-11-19T07:23:35;15.83;;;9.80;;
6840;SDS011;3458;53.678;14.080;2023-11-19T07:26:01;14.10;;;8.57;;
6840;SDS011;3458;53.678;14.080;2023-11-19T07:28:29;18.40;;;9.60;;
6840;SDS011;3458;53.678;14.080;2023-11-19T07:30:54;14.47;;;7.43;;
6840;SDS011;3458;53.678;14.080;2023-11-19T07:33:21;13.00;;;8.10;;
6840;SDS011;3458;53.678;14.080;2023-11-19T07:35:46;15.07;;;9.17;;
6840;SDS011;3458;53.678;14.080;2023-11-19T07:38:12;18.80;;;7.97;;
6840;SDS011;3458;53.678;14.080;2023-11-19T07:40:38;17.87;;;9.13;;
6840;SDS011;3458;53.678;14.080;2023-11-19T07:43:03;13.50;;;8.17;;
6840;SDS011;3458;53.678;14.080;2023-11-19T07:45:29;13.70;;;7.70;;
6840;SDS011;3458;53.678;14.080;2023-11-19T07:47:54;14.03;;;7.50;;
6840;SDS011;3458;53.678;14.080;2023-11-19T07:50:20;13.67;;;8.27;;
6840;SDS011;3458;53.678;14.080;2023-11-19T07:52:45;12.20;;;7.57;;
6840;SDS011;3458;53.678;14.080;2023-11-19T07:55:11;12.10;;;7.47;;
6840;SDS011;3458;53.678;14.080;2023-11-19T07:57:37;11.73;;;7.47;;
6840;SDS011;3458;53.678;14.080;2023-11-19T08:00:03;19.20;;;8.50;;
6840;SDS011;3458;53.678;14.080;2023-11-19T08:02:29;12.00;;;7.67;;
6840;SDS011;3458;53.678;14.080;2023-11-19T08:04:54;10.97;;;6.90;;
6840;SDS011;3458;53.678;14.080;2023-11-19T08:07:20;12.43;;;6.90;;
6840;SDS011;3458;53.678;14.080;2023-11-19T08:09:50;13.23;;;7.00;;
6840;SDS011;3458;53.678;14.080;2023-11-19T08:12:17;12.87;;;6.37;;
6840;SDS011;3458;53.678;14.080;2023-11-19T08:14:43;9.20;;;6.50;;
6840;SDS011;3458;53.678;14.080;2023-11-19T08:17:09;9.47;;;6.20;;
6840;SDS011;3458;53.678;14.080;2023-11-19T08:19:34;9.27;;;6.00;;
6840;SDS011;3458;53.678;14.080;2023-11-19T08:22:00;9.50;;;6.00;;
6840;SDS011;3458;53.678;14.080;2023-11-19T08:24:25;7.57;;;6.03;;
6840;SDS011;3458;53.678;14.080;2023-11-19T08:26:51;11.43;;;6.17;;
6840;SDS011;3458;53.678;14.080;2023-11-19T08:29:16;9.00;;;5.80;;
6840;SDS011;3458;53.678;14.080;2023-11-19T08:31:42;11.37;;;5.53;;
6840;SDS011;3458;53.678;14.080;2023-11-19T08:34:07;8.50;;;6.13;;
6840;SDS011;3458;53.678;14.080;2023-11-19T08:36:33;5.80;;;4.23;;
6840;SDS011;3458;53.678;14.080;2023-11-19T08:38:59;8.60;;;5.40;;
6840;SDS011;3458;53.678;14.080;2023-11-19T08:41:25;11.37;;;5.70;;
6840;SDS011;3458;53.678;14.080;2023-11-19T08:43:50;6.77;;;4.50;;
6840;SDS011;3458;53.678;14.080;2023-11-19T08:46:16;7.47;;;4.57;;
6840;SDS011;3458;53.678;14.080;2023-11-19T08:48:42;7.60;;;5.80;;
6840;SDS011;3458;53.678;14.080;2023-11-19T08:51:07;9.70;;;5.50;;
6840;SDS011;3458;53.678;14.080;2023-11-19T08:53:33;11.57;;;6.93;;
6840;SDS011;3458;53.678;14.080;2023-11-19T08:55:59;7.27;;;5.67;;
6840;SDS011;3458;53.678;14.080;2023-11-19T08:58:25;7.50;;;5.57;;
6840;SDS011;3458;53.678;14.080;2023-11-19T09:00:51;8.07;;;4.80;;
6840;SDS011;3458;53.678;14.080;2023-11-19T09:03:16;6.10;;;4.33;;
6840;SDS011;3458;53.678;14.080;2023-11-19T09:05:42;8.77;;;5.67;;
6840;SDS011;3458;53.678;14.080;2023-11-19T09:08:07;7.00;;;5.23;;
6840;SDS011;3458;53.678;14.080;2023-11-19T09:10:33;7.00;;;4.50;;
6840;SDS011;3458;53.678;14.080;2023-11-19T09:12:58;6.73;;;4.30;;
6840;SDS011;3458;53.678;14.080;2023-11-19T09:15:24;9.40;;;4.80;;
6840;SDS011;3458;53.678;14.080;2023-11-19T09:17:49;7.43;;;5.10;;
6840;SDS011;3458;53.678;14.080;2023-11-19T09:20:15;10.00;;;4.40;;
6840;SDS011;3458;53.678;14.080;2023-11-19T09:22:41;8.70;;;5.17;;
6840;SDS011;3458;53.678;14.080;2023-11-19T09:25:07;6.33;;;4.37;;
6840;SDS011;3458;53.678;14.080;2023-11-19T09:27:33;8.50;;;5.50;;
6840;SDS011;3458;53.678;14.080;2023-11-19T09:29:58;7.60;;;4.53;;
6840;SDS011;3458;53.678;14.080;2023-11-19T09:32:24;4.93;;;3.57;;
6840;SDS011;3458;53.678;14.080;2023-11-19T09:34:50;6.67;;;4.03;;
6840;SDS011;3458;53.678;14.080;2023-11-19T09:37:16;7.03;;;4.20;;
6840;SDS011;3458;53.678;14.080;2023-11-19T09:39:41;7.63;;;4.50;;
6840;SDS011;3458;53.678;14.080;2023-11-19T09:42:10;6.27;;;4.60;;
6840;SDS011;3458;53.678;14.080;2023-11-19T09:44:37;4.50;;;3.27;;
6840;SDS011;3458;53.678;14.080;2023-11-19T09:47:04;5.77;;;3.80;;
6840;SDS011;3458;53.678;14.080;2023-11-19T09:49:30;6.80;;;4.20;;
6840;SDS011;3458;53.678;14.080;2023-11-19T09:51:56;4.90;;;3.73;;
6840;SDS011;3458;53.678;14.080;2023-11-19T09:54:22;7.20;;;4.40;;
6840;SDS011;3458;53.678;14.080;2023-11-19T09:56:48;7.50;;;4.70;;
6840;SDS011;3458;53.678;14.080;2023-11-19T09:59:14;5.93;;;4.43;;
6840;SDS011;3458;53.678;14.080;2023-11-19T10:01:39;7.57;;;5.43;;
6840;SDS011;3458;53.678;14.080;2023-11-19T10:04:06;9.20;;;5.10;;
6840;SDS011;3458;53.678;14.080;2023-11-19T10:06:34;7.27;;;5.17;;
6840;SDS011;3458;53.678;14.080;2023-11-19T10:08:59;7.10;;;4.87;;
6840;SDS011;3458;53.678;14.080;2023-11-19T10:11:25;4.53;;;3.37;;
6840;SDS011;3458;53.678;14.080;2023-11-19T10:13:51;7.30;;;4.60;;
6840;SDS011;3458;53.678;14.080;2023-11-19T10:16:18;6.57;;;4.23;;
6840;SDS011;3458;53.678;14.080;2023-11-19T10:18:47;6.27;;;4.10;;
6840;SDS011;3458;53.678;14.080;2023-11-19T10:21:16;6.97;;;4.40;;
6840;SDS011;3458;53.678;14.080;2023-11-19T10:23:52;6.50;;;3.93;;
6840;SDS011;3458;53.678;14.080;2023-11-19T10:26:24;5.77;;;3.90;;
6840;SDS011;3458;53.678;14.080;2023-11-19T10:28:50;6.03;;;3.77;;
6840;SDS011;3458;53.678;14.080;2023-11-19T10:31:16;4.00;;;3.37;;
6840;SDS011;3458;53.678;14.080;2023-11-19T10:33:43;6.60;;;3.63;;
6840;SDS011;3458;53.678;14.080;2023-11-19T10:36:10;6.63;;;4.03;;
6840;SDS011;3458;53.678;14.080;2023-11-19T10:38:37;8.80;;;4.90;;
6840;SDS011;3458;53.678;14.080;2023-11-19T10:41:03;7.00;;;4.53;;
6840;SDS011;3458;53.678;14.080;2023-11-19T10:43:30;5.37;;;3.53;;
6840;SDS011;3458;53.678;14.080;2023-11-19T10:46:08;4.70;;;3.83;;
6840;SDS011;3458;53.678;14.080;2023-11-19T10:48:35;10.50;;;5.63;;
6840;SDS011;3458;53.678;14.080;2023-11-19T10:51:01;11.60;;;4.57;;
6840;SDS011;3458;53.678;14.080;2023-11-19T10:53:30;6.40;;;4.43;;
6840;SDS011;3458;53.678;14.080;2023-11-19T10:55:58;6.63;;;4.20;;
6840;SDS011;3458;53.678;14.080;2023-11-19T10:58:25;7.47;;;4.40;;
6840;SDS011;3458;53.678;14.080;2023-11-19T11:00:54;10.47;;;4.23;;
6840;SDS011;3458;53.678;14.080;2023-11-19T11:03:24;5.63;;;3.57;;
6840;SDS011;3458;53.678;14.080;2023-11-19T11:05:51;5.27;;;3.97;;
6840;SDS011;3458;53.678;14.080;2023-11-19T11:08:18;6.87;;;4.00;;
6840;SDS011;3458;53.678;14.080;2023-11-19T11:10:52;6.00;;;4.00;;
6840;SDS011;3458;53.678;14.080;2023-11-19T11:13:18;4.83;;;3.83;;
6840;SDS011;3458;53.678;14.080;2023-11-19T11:15:45;3.40;;;3.00;;
6840;SDS011;3458;53.678;14.080;2023-11-19T11:18:12;5.00;;;3.63;;
6840;SDS011;3458;53.678;14.080;2023-11-19T11:20:38;4.00;;;3.60;;
6840;SDS011;3458;53.678;14.080;2023-11-19T11:26:14;4.00;;;2.90;;
6840;SDS011;3458;53.678;14.080;2023-11-19T11:29:05;3.40;;;3.00;;
6840;SDS011;3458;53.678;14.080;2023-11-19T11:34:39;4.60;;;3.60;;
6840;SDS011;3458;53.678;14.080;2023-11-19T11:37:33;3.77;;;3.20;;
6840;SDS011;3458;53.678;14.080;2023-11-19T11:40:02;4.33;;;3.27;;
6840;SDS011;3458;53.678;14.080;2023-11-19T11:42:35;3.43;;;2.77;;
6840;SDS011;3458;53.678;14.080;2023-11-19T11:45:10;3.50;;;3.13;;
6840;SDS011;3458;53.678;14.080;2023-11-19T11:50:14;5.57;;;3.30;;
6840;SDS011;3458;53.678;14.080;2023-11-19T11:56:08;4.77;;;2.80;;
6840;SDS011;3458;53.678;14.080;2023-11-19T11:58:27;3.53;;;3.23;;
6840;SDS011;3458;53.678;14.080;2023-11-19T12:00:58;3.17;;;2.87;;
6840;SDS011;3458;53.678;14.080;2023-11-19T12:03:27;3.13;;;2.83;;
6840;SDS011;3458;53.678;14.080;2023-11-19T12:05:54;3.87;;;2.93;;
6840;SDS011;3458;53.678;14.080;2023-11-19T12:08:20;3.67;;;3.30;;
6840;SDS011;3458;53.678;14.080;2023-11-19T12:10:52;5.50;;;3.47;;
6840;SDS011;3458;53.678;14.080;2023-11-19T12:13:19;4.40;;;4.00;;
6840;SDS011;3458;53.678;14.080;2023-11-19T12:16:10;4.30;;;3.70;;
6840;SDS011;3458;53.678;14.080;2023-11-19T12:18:35;3.97;;;3.57;;
6840;SDS011;3458;53.678;14.080;2023-11-19T12:21:03;4.00;;;3.57;;
6840;SDS011;3458;53.678;14.080;2023-11-19T12:23:30;4.83;;;3.23;;
6840;SDS011;3458;53.678;14.080;2023-11-19T12:25:57;3.60;;;3.30;;
6840;SDS011;3458;53.678;14.080;2023-11-19T12:28:23;3.33;;;3.03;;
6840;SDS011;3458;53.678;14.080;2023-11-19T12:30:51;3.50;;;3.10;;
6840;SDS011;3458;53.678;14.080;2023-11-19T12:33:18;5.17;;;2.80;;
6840;SDS011;3458;53.678;14.080;2023-11-19T12:35:45;4.97;;;3.33;;
6840;SDS011;3458;53.678;14.080;2023-11-19T12:38:21;5.47;;;3.87;;
6840;SDS011;3458;53.678;14.080;2023-11-19T12:41:02;4.10;;;3.03;;
6840;SDS011;3458;53.678;14.080;2023-11-19T12:43:28;5.00;;;2.90;;
6840;SDS011;3458;53.678;14.080;2023-11-19T12:45:54;4.17;;;3.20;;
6840;SDS011;3458;53.678;14.080;2023-11-19T12:48:19;3.23;;;2.90;;
6840;SDS011;3458;53.678;14.080;2023-11-19T12:50:55;8.60;;;3.97;;
6840;SDS011;3458;53.678;14.080;2023-11-19T12:53:26;3.77;;;3.27;;
6840;SDS011;3458;53.678;14.080;2023-11-19T12:55:53;3.83;;;2.73;;
6840;SDS011;3458;53.678;14.080;2023-11-19T12:58:33;5.70;;;3.57;;
6840;SDS011;3458;53.678;14.080;2023-11-19T13:03:35;4.33;;;3.53;;
6840;SDS011;3458;53.678;14.080;2023-11-19T13:06:07;5.83;;;2.90;;
6840;SDS011;3458;53.678;14.080;2023-11-19T13:08:38;3.50;;;3.00;;
6840;SDS011;3458;53.678;14.080;2023-11-19T13:11:06;5.83;;;3.37;;
6840;SDS011;3458;53.678;14.080;2023-11-19T13:13:32;3.97;;;3.57;;
6840;SDS011;3458;53.678;14.080;2023-11-19T13:16:15;5.00;;;3.33;;
6840;SDS011;3458;53.678;14.080;2023-11-19T13:18:40;3.50;;;2.97;;
6840;SDS011;3458;53.678;14.080;2023-11-19T13:21:05;4.77;;;3.20;;
6840;SDS011;3458;53.678;14.080;2023-11-19T13:23:31;5.00;;;3.20;;
6840;SDS011;3458;53.678;14.080;2023-11-19T13:25:56;15.93;;;4.00;;
6840;SDS011;3458;53.678;14.080;2023-11-19T13:28:22;4.30;;;3.00;;
6840;SDS011;3458;53.678;14.080;2023-11-19T13:30:47;7.40;;;3.70;;
6840;SDS011;3458;53.678;14.080;2023-11-19T13:33:13;6.43;;;3.70;;
6840;SDS011;3458;53.678;14.080;2023-11-19T13:35:38;7.97;;;3.57;;
6840;SDS011;3458;53.678;14.080;2023-11-19T13:38:07;12.23;;;4.07;;
6840;SDS011;3458;53.678;14.080;2023-11-19T13:40:33;5.40;;;3.63;;
6840;SDS011;3458;53.678;14.080;2023-11-19T13:42:59;9.50;;;4.23;;
6840;SDS011;3458;53.678;14.080;2023-11-19T13:45:25;8.17;;;4.23;;
6840;SDS011;3458;53.678;14.080;2023-11-19T13:47:50;12.00;;;4.03;;
6840;SDS011;3458;53.678;14.080;2023-11-19T13:50:16;15.13;;;4.00;;
6840;SDS011;3458;53.678;14.080;2023-11-19T13:52:42;12.43;;;5.03;;
6840;SDS011;3458;53.678;14.080;2023-11-19T13:55:10;4.30;;;3.90;;
6840;SDS011;3458;53.678;14.080;2023-11-19T13:57:39;7.00;;;4.37;;
6840;SDS011;3458;53.678;14.080;2023-11-19T14:00:06;8.00;;;4.00;;
6840;SDS011;3458;53.678;14.080;2023-11-19T14:02:38;9.43;;;3.87;;
6840;SDS011;3458;53.678;14.080;2023-11-19T14:05:07;10.93;;;5.03;;
6840;SDS011;3458;53.678;14.080;2023-11-19T14:07:33;13.70;;;4.00;;
6840;SDS011;3458;53.678;14.080;2023-11-19T14:09:59;5.30;;;4.30;;
6840;SDS011;3458;53.678;14.080;2023-11-19T14:12:25;15.77;;;6.13;;
6840;SDS011;3458;53.678;14.080;2023-11-19T14:14:50;10.30;;;5.13;;
6840;SDS011;3458;53.678;14.080;2023-11-19T14:17:16;17.57;;;4.90;;
6840;SDS011;3458;53.678;14.080;2023-11-19T14:19:42;14.00;;;4.70;;
6840;SDS011;3458;53.678;14.080;2023-11-19T14:22:08;14.80;;;5.00;;
6840;SDS011;3458;53.678;14.080;2023-11-19T14:24:33;10.93;;;4.60;;
6840;SDS011;3458;53.678;14.080;2023-11-19T14:26:59;10.40;;;4.50;;
6840;SDS011;3458;53.678;14.080;2023-11-19T14:29:25;9.13;;;4.37;;
6840;SDS011;3458;53.678;14.080;2023-11-19T14:31:52;7.60;;;4.80;;
6840;SDS011;3458;53.678;14.080;2023-11-19T14:34:21;15.13;;;5.27;;
6840;SDS011;3458;53.678;14.080;2023-11-19T14:36:47;7.30;;;4.20;;
6840;SDS011;3458;53.678;14.080;2023-11-19T14:39:12;11.80;;;6.07;;
6840;SDS011;3458;53.678;14.080;2023-11-19T14:41:38;21.30;;;6.13;;
6840;SDS011;3458;53.678;14.080;2023-11-19T14:44:04;31.20;;;12.53;;
6840;SDS011;3458;53.678;14.080;2023-11-19T14:46:30;27.23;;;10.90;;
6840;SDS011;3458;53.678;14.080;2023-11-19T14:48:56;16.87;;;9.53;;
6840;SDS011;3458;53.678;14.080;2023-11-19T14:51:21;21.77;;;7.57;;
6840;SDS011;3458;53.678;14.080;2023-11-19T14:53:47;28.57;;;6.03;;
6840;SDS011;3458;53.678;14.080;2023-11-19T14:56:12;22.10;;;6.20;;
6840;SDS011;3458;53.678;14.080;2023-11-19T14:58:38;22.90;;;5.50;;
6840;SDS011;3458;53.678;14.080;2023-11-19T15:01:04;17.93;;;5.43;;